Time;durP1;ratioP1;P1;durP2;ratioP2;P2;SDS_P1;SDS_P2;PMS_P1;PMS_P2;Temp;Humidity;BMP_temperature;BMP_pressure;BME280_temperature;BME280_humidity;BME280_pressure;Samples;Min_cycle;Max_cycle;Signal;HPM_P1;HPM_P2
2021/09/24 00:01:01;;;;;;;6.53;2.63;;;;;;;11.49;92.91;101890.00;5053199;28;20049;-73
2021/09/24 00:03:26;;;;;;;9.10;2.67;;;;;;;11.46;93.20;101883.09;5052703;28;20036;-73
2021/09/24 00:05:52;;;;;;;10.57;3.28;;;;;;;11.44;93.70;101882.38;5053191;28;20078;-73
2021/09/24 00:08:18;;;;;;;10.48;3.17;;;;;;;11.41;93.83;101886.09;5053534;28;20508;-73
2021/09/24 00:10:44;;;;;;;13.90;3.70;;;;;;;11.38;94.09;101883.69;5052541;28;20029;-73
2021/09/24 00:13:10;;;;;;;13.20;3.05;;;;;;;11.37;94.40;101881.97;5054201;28;20029;-73
2021/09/24 00:15:36;;;;;;;12.43;3.72;;;;;;;11.33;94.38;101880.53;5055903;28;20021;-73
2021/09/24 00:18:01;;;;;;;12.35;3.10;;;;;;;11.31;94.49;101887.78;5060111;28;20045;-73
2021/09/24 00:20:26;;;;;;;9.27;3.28;;;;;;;11.29;94.53;101887.06;5058490;28;20036;-73
2021/09/24 00:22:52;;;;;;;5.80;2.75;;;;;;;11.28;94.29;101885.34;5058922;28;20037;-73
2021/09/24 00:25:17;;;;;;;10.52;2.90;;;;;;;11.27;93.84;101876.53;5058523;28;20032;-73
2021/09/24 00:27:43;;;;;;;11.68;3.33;;;;;;;11.31;94.72;101879.78;5056623;28;20037;-73
2021/09/24 00:30:09;;;;;;;14.85;3.08;;;;;;;11.31;94.49;101870.97;5053655;28;20033;-73
2021/09/24 00:32:34;;;;;;;9.43;3.15;;;;;;;11.31;94.54;101863.81;5053569;28;20029;-73
2021/09/24 00:35:00;;;;;;;16.50;4.25;;;;;;;11.34;95.22;101868.06;5052745;28;20032;-73
2021/09/24 00:37:25;;;;;;;12.27;3.97;;;;;;;11.33;95.45;101861.91;5053387;28;20377;-73
2021/09/24 00:39:50;;;;;;;10.20;3.50;;;;;;;11.33;95.42;101869.00;5052574;28;20059;-73
2021/09/24 00:42:16;;;;;;;15.13;3.15;;;;;;;11.31;95.37;101861.16;5052799;28;20086;-73
2021/09/24 00:44:44;;;;;;;12.30;3.65;;;;;;;11.29;94.96;101866.59;5053130;28;20029;-73
2021/09/24 00:47:10;;;;;;;9.15;3.00;;;;;;;11.28;94.58;101861.38;5053165;28;20037;-73
2021/09/24 00:49:36;;;;;;;9.73;3.28;;;;;;;11.28;94.42;101859.56;5052962;28;20040;-73
2021/09/24 00:52:03;;;;;;;8.57;3.15;;;;;;;11.33;95.14;101869.00;5052385;28;20033;-73
2021/09/24 00:54:29;;;;;;;9.23;3.17;;;;;;;11.32;94.79;101849.53;5053050;28;20033;-73
2021/09/24 00:56:55;;;;;;;12.65;3.30;;;;;;;11.33;95.23;101856.56;5052099;28;20126;-74
2021/09/24 00:59:20;;;;;;;11.55;3.33;;;;;;;11.32;94.92;101844.19;5051525;28;20112;-73
2021/09/24 01:01:45;;;;;;;9.95;3.20;;;;;;;11.35;95.62;101851.13;5052773;28;20033;-73
2021/09/24 01:04:11;;;;;;;8.23;3.50;;;;;;;11.37;95.98;101854.50;5051061;28;20529;-73
2021/09/24 01:06:38;;;;;;;9.05;2.95;;;;;;;11.38;96.26;101853.53;5052723;28;20028;-74
2021/09/24 01:09:04;;;;;;;7.72;3.05;;;;;;;11.38;95.80;101848.22;5052000;28;20409;-73
2021/09/24 01:11:29;;;;;;;7.93;2.97;;;;;;;11.40;95.58;101848.94;5052614;28;20044;-73
2021/09/24 01:13:55;;;;;;;13.30;3.95;;;;;;;11.43;95.88;101851.34;5051745;28;20167;-73
2021/09/24 01:16:20;;;;;;;14.00;3.42;;;;;;;11.49;96.40;101852.69;5052780;28;20468;-73
2021/09/24 01:18:46;;;;;;;7.20;3.00;;;;;;;11.54;96.29;101851.38;5052536;28;20427;-73
2021/09/24 01:21:11;;;;;;;9.15;3.13;;;;;;;11.60;96.31;101850.03;5051193;28;20033;-73
2021/09/24 01:23:37;;;;;;;9.60;2.88;;;;;;;11.65;96.12;101846.03;5052227;28;20029;-73
2021/09/24 01:26:03;;;;;;;12.32;2.85;;;;;;;11.71;96.33;101843.84;5050587;28;20090;-73
2021/09/24 01:28:28;;;;;;;11.07;3.70;;;;;;;11.72;95.61;101838.41;5052633;28;20037;-73
2021/09/24 01:30:54;;;;;;;8.57;2.88;;;;;;;11.73;95.40;101839.22;5051477;28;20090;-73
2021/09/24 01:33:19;;;;;;;8.55;3.05;;;;;;;11.69;95.01;101835.97;5052436;28;20127;-73
2021/09/24 01:35:44;;;;;;;9.43;2.97;;;;;;;11.65;94.63;101835.34;5052205;28;20470;-73
2021/09/24 01:38:10;;;;;;;8.50;2.85;;;;;;;11.63;94.73;101842.63;5050552;28;20467;-73
2021/09/24 01:40:35;;;;;;;6.70;2.88;;;;;;;11.59;94.46;101832.34;5052030;28;20044;-73
2021/09/24 01:43:01;;;;;;;10.68;3.08;;;;;;;11.55;94.60;101831.72;5051489;28;20358;-73
2021/09/24 01:45:26;;;;;;;8.13;3.00;;;;;;;11.51;94.44;101826.75;5052291;28;20054;-73
2021/09/24 01:47:52;;;;;;;11.25;3.08;;;;;;;11.44;94.13;101821.91;5052009;28;20041;-73
2021/09/24 01:50:17;;;;;;;15.00;3.60;;;;;;;11.42;94.43;101823.00;5052114;28;20029;-73
2021/09/24 01:52:43;;;;;;;11.18;3.70;;;;;;;11.41;95.14;101821.31;5052193;28;20060;-73
2021/09/24 01:55:09;;;;;;;13.75;3.70;;;;;;;11.39;94.64;101815.25;5051408;28;20470;-73
2021/09/24 01:57:36;;;;;;;16.58;3.72;;;;;;;11.38;95.01;101806.41;5051962;28;20485;-73
2021/09/24 02:00:03;;;;;;;10.23;3.88;;;;;;;11.39;94.94;101816.13;5051617;28;20048;-73
2021/09/24 02:02:29;;;;;;;9.32;3.22;;;;;;;11.36;94.76;101804.81;5052394;28;20037;-73
2021/09/24 02:04:54;;;;;;;10.57;3.60;;;;;;;11.34;94.77;101796.94;5052261;28;20062;-73
2021/09/24 02:07:20;;;;;;;9.50;3.45;;;;;;;11.34;94.88;101794.28;5051185;28;20029;-73
2021/09/24 02:09:45;;;;;;;14.85;3.63;;;;;;;11.32;94.80;101790.91;5051694;28;20090;-73
2021/09/24 02:12:11;;;;;;;10.05;3.60;;;;;;;11.30;94.93;101790.19;5051102;28;20048;-73
2021/09/24 02:14:36;;;;;;;12.82;3.55;;;;;;;11.27;95.04;101793.06;5051948;28;20531;-73
2021/09/24 02:17:04;;;;;;;12.05;3.40;;;;;;;11.25;95.16;101797.69;5051046;28;20041;-73
2021/09/24 02:19:30;;;;;;;14.20;3.88;;;;;;;11.21;95.03;101799.75;5052252;28;20103;-73
2021/09/24 02:21:57;;;;;;;12.40;3.42;;;;;;;11.17;94.88;101797.44;5050552;28;20440;-73
2021/09/24 02:24:23;;;;;;;9.10;3.58;;;;;;;11.13;95.00;101793.31;5051901;28;20029;-73
2021/09/24 02:26:48;;;;;;;7.95;3.05;;;;;;;11.08;95.15;101791.84;5052051;28;20029;-74
2021/09/24 02:29:14;;;;;;;12.05;3.22;;;;;;;11.04;95.10;101790.38;5051248;28;20029;-74
2021/09/24 02:31:40;;;;;;;12.32;3.28;;;;;;;10.99;95.11;101789.91;5051751;28;20547;-74
2021/09/24 02:34:05;;;;;;;15.43;4.10;;;;;;;10.96;95.13;101799.94;5053650;28;20068;-74
2021/09/24 02:36:31;;;;;;;10.70;3.72;;;;;;;10.89;95.33;101797.75;5055857;28;20060;-73
2021/09/24 02:38:57;;;;;;;7.80;3.13;;;;;;;10.83;95.26;101798.22;5055096;28;20556;-73
2021/09/24 02:41:22;;;;;;;9.20;3.38;;;;;;;10.77;95.21;101802.19;5054726;28;20037;-73
2021/09/24 02:43:48;;;;;;;9.85;3.55;;;;;;;10.73;95.65;101798.09;5054157;28;20094;-73
2021/09/24 02:46:13;;;;;;;10.15;3.40;;;;;;;10.72;96.64;101801.72;5054421;28;20029;-73
2021/09/24 02:48:38;;;;;;;10.60;3.28;;;;;;;10.67;96.47;101793.22;5055282;28;20045;-73
2021/09/24 02:51:04;;;;;;;10.50;4.28;;;;;;;10.64;96.58;101792.59;5054497;28;20032;-73
2021/09/24 02:53:29;;;;;;;13.50;4.28;;;;;;;10.65;97.16;101791.66;5055180;28;20047;-73
2021/09/24 02:55:55;;;;;;;9.90;3.50;;;;;;;10.61;97.48;101796.34;5054933;28;20477;-73
2021/09/24 02:58:20;;;;;;;9.50;3.25;;;;;;;10.55;96.97;101802.13;5054088;28;20449;-73
2021/09/24 03:00:45;;;;;;;10.95;3.78;;;;;;;10.49;96.72;101800.78;5054824;28;20033;-73
2021/09/24 03:03:11;;;;;;;11.93;3.65;;;;;;;10.45;96.82;101794.00;5054432;28;20461;-73
2021/09/24 03:05:36;;;;;;;12.43;3.97;;;;;;;10.48;97.59;101791.13;5054852;28;20032;-73
2021/09/24 03:08:03;;;;;;;8.85;3.83;;;;;;;10.46;97.49;101786.84;5054712;28;20075;-73
2021/09/24 03:10:28;;;;;;;9.32;3.67;;;;;;;10.42;97.72;101783.59;5053825;28;20044;-74
2021/09/24 03:12:54;;;;;;;7.95;3.65;;;;;;;10.38;97.49;101790.09;5054791;28;20029;-74
2021/09/24 03:15:19;;;;;;;11.07;3.78;;;;;;;10.36;97.47;101784.03;5054082;28;20040;-74
2021/09/24 03:17:45;;;;;;;13.90;4.43;;;;;;;10.35;97.53;101785.00;5054719;28;20029;-74
2021/09/24 03:20:12;;;;;;;12.05;4.57;;;;;;;10.35;97.90;101779.69;5054043;28;20025;-74
2021/09/24 03:22:37;;;;;;;12.45;4.15;;;;;;;10.32;97.80;101775.41;5053265;28;20094;-74
2021/09/24 03:25:03;;;;;;;10.68;3.70;;;;;;;10.33;97.75;101769.16;5053296;28;20430;-73
2021/09/24 03:27:28;;;;;;;11.68;4.50;;;;;;;10.37;98.00;101772.44;5053702;28;20440;-74
2021/09/24 03:29:54;;;;;;;7.15;3.60;;;;;;;10.38;98.17;101768.81;5054278;28;20033;-74
2021/09/24 03:32:19;;;;;;;10.18;3.92;;;;;;;10.39;98.15;101765.19;5053922;28;20405;-74
2021/09/24 03:34:49;;;;;;;6.90;3.85;;;;;;;10.39;98.13;101768.69;5054461;28;20112;-74
2021/09/24 03:37:15;;;;;;;8.68;3.88;;;;;;;10.40;98.01;101773.06;5053752;28;20473;-74
2021/09/24 03:39:41;;;;;;;12.10;3.88;;;;;;;10.43;98.34;101771.13;5054069;28;20112;-74
2021/09/24 03:42:07;;;;;;;11.00;4.40;;;;;;;10.46;98.31;101769.06;5054145;28;20037;-74
2021/09/24 03:44:34;;;;;;;13.00;4.22;;;;;;;10.52;98.79;101755.31;5052339;28;20031;-74
2021/09/24 03:46:59;;;;;;;12.27;4.18;;;;;;;10.57;99.11;101755.81;5054631;28;20036;-74
2021/09/24 03:49:26;;;;;;;14.25;4.50;;;;;;;10.62;99.29;101751.97;5053561;28;20033;-74
2021/09/24 03:51:52;;;;;;;11.18;3.97;;;;;;;10.63;99.29;101743.00;5054435;28;20045;-74
2021/09/24 03:54:17;;;;;;;15.75;4.72;;;;;;;10.65;99.11;101747.25;5053531;28;20060;-74
2021/09/24 03:56:43;;;;;;;7.35;3.78;;;;;;;10.70;99.29;101757.53;5053942;28;20527;-74
2021/09/24 03:59:12;;;;;;;13.05;4.43;;;;;;;10.76;99.46;101754.41;5053825;28;20064;-73
2021/09/24 04:01:38;;;;;;;10.32;4.32;;;;;;;10.84;99.48;101754.66;5053872;28;20112;-74
2021/09/24 04:04:04;;;;;;;15.63;4.65;;;;;;;10.94;99.67;101755.66;5052565;28;20040;-74
2021/09/24 04:06:30;;;;;;;16.27;5.25;;;;;;;11.07;99.91;101750.19;5053326;28;20272;-73
2021/09/24 04:08:55;;;;;;;14.00;5.43;;;;;;;11.20;99.90;101752.75;5053771;28;20053;-74
2021/09/24 04:11:21;;;;;;;12.52;4.05;;;;;;;11.29;99.90;101749.38;5052814;28;20033;-74
2021/09/24 04:13:46;;;;;;;11.52;4.50;;;;;;;11.36;100.00;101757.72;5054122;28;20025;-73
2021/09/24 04:16:12;;;;;;;11.13;4.43;;;;;;;11.39;99.99;101757.50;5053052;28;20036;-74
2021/09/24 04:18:37;;;;;;;11.63;4.30;;;;;;;11.45;99.75;101761.50;5053659;28;20033;-74
2021/09/24 04:21:03;;;;;;;10.00;3.85;;;;;;;11.52;99.58;101768.00;5053489;28;20445;-74
2021/09/24 04:23:28;;;;;;;10.15;3.95;;;;;;;11.58;99.30;101762.19;5053150;28;20035;-74
2021/09/24 04:25:53;;;;;;;7.93;4.03;;;;;;;11.68;99.18;101761.47;5053046;28;20087;-74
2021/09/24 04:28:19;;;;;;;17.45;4.93;;;;;;;11.74;99.38;101763.63;5052976;28;20048;-73
2021/09/24 04:30:44;;;;;;;17.42;5.38;;;;;;;11.82;99.13;101756.69;5053052;28;20466;-74
2021/09/24 04:33:10;;;;;;;17.83;5.80;;;;;;;11.90;99.32;101755.25;5053764;28;20458;-74
2021/09/24 04:35:35;;;;;;;17.08;5.63;;;;;;;11.97;98.92;101762.63;5052788;28;20033;-73
2021/09/24 04:38:01;;;;;;;16.48;5.97;;;;;;;12.05;98.63;101758.50;5053326;28;20576;-74
2021/09/24 04:40:26;;;;;;;17.02;6.07;;;;;;;12.11;99.07;101757.97;5053153;28;20505;-74
2021/09/24 04:42:51;;;;;;;21.55;5.70;;;;;;;12.19;98.76;101760.00;5053029;28;20033;-74
2021/09/24 04:45:17;;;;;;;16.65;6.90;;;;;;;12.24;98.82;101764.00;5053113;28;20362;-75
2021/09/24 04:47:42;;;;;;;11.30;5.47;;;;;;;12.29;98.80;101760.94;5052883;28;20040;-74
2021/09/24 04:50:08;;;;;;;10.38;4.80;;;;;;;12.33;98.17;101765.03;5053220;28;20065;-74
2021/09/24 04:52:34;;;;;;;19.90;6.25;;;;;;;12.41;98.41;101754.56;5052453;28;20033;-74
2021/09/24 04:55:00;;;;;;;21.58;7.28;;;;;;;12.50;98.63;101759.13;5053271;28;20037;-74
2021/09/24 04:57:25;;;;;;;21.30;8.27;;;;;;;12.63;98.88;101755.41;5051578;28;20051;-74
2021/09/24 04:59:50;;;;;;;20.08;8.23;;;;;;;12.68;99.28;101754.06;5052812;28;20029;-74
2021/09/24 05:02:16;;;;;;;27.52;8.98;;;;;;;12.75;99.10;101751.72;5052690;28;20424;-73
2021/09/24 05:04:42;;;;;;;23.55;9.05;;;;;;;12.79;98.90;101750.47;5052188;28;20511;-74
2021/09/24 05:07:08;;;;;;;30.63;8.95;;;;;;;12.80;98.88;101746.00;5052723;28;20033;-74
2021/09/24 05:09:33;;;;;;;25.25;9.88;;;;;;;12.78;98.49;101747.91;5051878;28;20056;-74
2021/09/24 05:12:10;;;;;;;21.48;9.73;;;;;;;12.78;98.72;101754.13;5086883;27;1287153;-75
2021/09/24 05:14:36;;;;;;;26.75;10.15;;;;;;;12.79;98.69;101753.13;5109783;28;20044;-75
2021/09/24 05:17:01;;;;;;;21.55;9.68;;;;;;;12.80;98.83;101744.16;5110331;28;20024;-75
2021/09/24 05:19:27;;;;;;;26.85;9.95;;;;;;;12.81;98.94;101742.34;5109770;28;20523;-75
2021/09/24 05:21:52;;;;;;;30.80;10.70;;;;;;;12.83;99.02;101735.03;5110701;28;20035;-75
2021/09/24 05:24:17;;;;;;;23.88;11.23;;;;;;;12.85;99.71;101739.28;5110577;28;20028;-75
2021/09/24 05:26:43;;;;;;;27.30;10.50;;;;;;;12.86;99.67;101742.78;5109670;28;20096;-73
2021/09/24 05:29:08;;;;;;;25.20;10.40;;;;;;;12.87;99.83;101736.47;5110199;28;20085;-74
2021/09/24 05:31:33;;;;;;;45.75;16.50;;;;;;;12.90;99.85;101743.34;5109370;28;20036;-74
2021/09/24 05:34:02;;;;;;;32.03;15.95;;;;;;;12.95;100.00;101743.81;5110086;28;20388;-74
2021/09/24 05:36:27;;;;;;;32.75;14.55;;;;;;;13.03;99.88;101744.84;5093041;28;20487;-73
2021/09/24 05:38:53;;;;;;;38.10;13.82;;;;;;;13.13;100.00;101744.88;5112750;28;20032;-75
2021/09/24 05:41:19;;;;;;;30.83;14.40;;;;;;;13.21;100.00;101739.72;5110473;28;20085;-75
2021/09/24 05:43:44;;;;;;;35.65;15.73;;;;;;;13.29;100.00;101735.53;5108860;28;20054;-74
2021/09/24 05:46:10;;;;;;;36.70;15.23;;;;;;;13.33;100.00;101729.78;5109888;28;20467;-75
2021/09/24 05:48:35;;;;;;;41.35;15.65;;;;;;;13.36;100.00;101729.56;5109278;28;20456;-75
2021/09/24 05:51:02;;;;;;;41.70;16.65;;;;;;;13.39;100.00;101731.94;5109328;28;20032;-74
2021/09/24 05:53:28;;;;;;;40.10;15.95;;;;;;;13.40;100.00;101733.66;5109094;28;20035;-76
2021/09/24 05:55:55;;;;;;;40.30;16.95;;;;;;;13.45;100.00;101743.06;5109617;28;20032;-75
2021/09/24 05:58:22;;;;;;;48.35;19.73;;;;;;;13.50;100.00;101752.38;5109662;28;20028;-75
2021/09/24 06:00:47;;;;;;;61.25;23.45;;;;;;;13.58;100.00;101743.66;5108518;28;20051;-75
2021/09/24 06:03:13;;;;;;;45.95;20.48;;;;;;;13.70;100.00;101747.06;5091086;28;20440;-74
2021/09/24 06:05:38;;;;;;;47.60;20.88;;;;;;;13.79;100.00;101746.25;5090697;28;20036;-71
2021/09/24 06:08:04;;;;;;;54.08;20.48;;;;;;;13.89;100.00;101739.09;5109372;28;20500;-74
2021/09/24 06:10:29;;;;;;;51.92;20.20;;;;;;;13.98;100.00;101736.56;5108309;28;20399;-73
2021/09/24 06:12:54;;;;;;;51.08;19.73;;;;;;;14.08;100.00;101734.75;5108838;28;20031;-72
2021/09/24 06:15:22;;;;;;;42.30;19.55;;;;;;;14.18;100.00;101743.63;5108921;28;20060;-72
2021/09/24 06:17:48;;;;;;;43.30;18.73;;;;;;;14.24;100.00;101742.19;5108242;28;20059;-73
2021/09/24 06:20:15;;;;;;;46.95;19.80;;;;;;;14.29;100.00;101753.34;5108977;28;20036;-75
2021/09/24 06:22:42;;;;;;;43.75;20.25;;;;;;;14.35;100.00;101751.94;5096786;28;20055;-75
2021/09/24 06:25:08;;;;;;;37.40;18.17;;;;;;;14.43;100.00;101749.38;5092389;28;20039;-75
2021/09/24 06:27:33;;;;;;;49.50;20.95;;;;;;;14.55;100.00;101750.06;5092050;28;20051;-76
2021/09/24 06:29:59;;;;;;;40.78;19.77;;;;;;;14.66;100.00;101744.59;5092989;28;20465;-71
2021/09/24 06:32:25;;;;;;;46.05;17.90;;;;;;;14.76;100.00;101750.78;5092934;28;20044;-72
2021/09/24 06:34:51;;;;;;;37.05;17.52;;;;;;;14.84;100.00;101752.75;5091498;28;20047;-73
2021/09/24 06:37:17;;;;;;;31.65;16.20;;;;;;;14.87;100.00;101746.22;5092605;28;20028;-72
2021/09/24 06:39:44;;;;;;;33.42;17.40;;;;;;;14.89;100.00;101755.00;5091658;28;20047;-74
2021/09/24 06:42:10;;;;;;;35.60;17.02;;;;;;;14.89;100.00;101755.00;5092260;28;20115;-75
2021/09/24 06:44:35;;;;;;;33.13;15.55;;;;;;;14.91;99.58;101761.91;5091735;28;20042;-74
2021/09/24 06:47:01;;;;;;;34.45;17.48;;;;;;;14.99;99.78;101762.00;5091996;28;20032;-73
2021/09/24 06:49:26;;;;;;;36.33;18.35;;;;;;;15.12;99.65;101758.16;5074114;28;20032;-73
2021/09/24 06:51:53;;;;;;;35.70;18.45;;;;;;;15.28;99.64;101755.69;5091656;28;20302;-74
2021/09/24 06:54:18;;;;;;;42.72;17.88;;;;;;;15.39;99.72;101753.81;5092214;28;20123;-74
2021/09/24 06:56:44;;;;;;;43.80;18.67;;;;;;;15.48;99.21;101751.09;5091556;28;20084;-72
2021/09/24 06:59:10;;;;;;;36.53;17.30;;;;;;;15.53;98.81;101756.00;5091723;28;20036;-73
2021/09/24 07:01:35;;;;;;;38.65;17.25;;;;;;;15.52;97.72;101757.84;5091619;28;20047;-73
2021/09/24 07:04:01;;;;;;;34.47;16.52;;;;;;;15.55;97.74;101762.03;5092047;28;20522;-73
2021/09/24 07:06:26;;;;;;;36.30;17.92;;;;;;;15.61;97.50;101763.28;5073629;28;20039;-75
2021/09/24 07:08:51;;;;;;;30.38;16.50;;;;;;;15.71;97.37;101766.75;5091371;28;20496;-76
2021/09/24 07:11:17;;;;;;;33.75;15.73;;;;;;;15.90;97.86;101770.34;5091319;28;20121;-73
2021/09/24 07:13:43;;;;;;;29.33;14.30;;;;;;;16.00;97.17;101766.63;5073127;28;20059;-73
2021/09/24 07:16:08;;;;;;;27.50;12.80;;;;;;;16.10;95.75;101765.69;5091972;28;20074;-71
2021/09/24 07:18:34;;;;;;;35.33;13.18;;;;;;;16.20;93.91;101758.41;5091437;28;20109;-72
2021/09/24 07:20:59;;;;;;;31.67;13.05;;;;;;;16.36;94.40;101763.94;5093059;28;20056;-70
2021/09/24 07:23:25;;;;;;;24.73;11.70;;;;;;;16.57;94.11;101768.13;5094516;28;20468;-70
2021/09/24 07:25:51;;;;;;;25.08;10.48;;;;;;;16.74;91.98;101761.03;5091503;28;20578;-71
2021/09/24 07:28:16;;;;;;;24.48;11.10;;;;;;;16.88;91.20;101759.63;5091495;28;20047;-71
2021/09/24 07:30:42;;;;;;;20.02;9.68;;;;;;;17.10;91.63;101760.94;5090998;28;20464;-71
2021/09/24 07:33:07;;;;;;;19.60;9.32;;;;;;;17.21;89.38;101760.69;5091023;28;20039;-71
2021/09/24 07:35:34;;;;;;;20.25;9.02;;;;;;;17.38;88.42;101766.97;5090185;28;20040;-71
2021/09/24 07:37:59;;;;;;;16.98;8.10;;;;;;;17.53;87.16;101769.88;5090622;28;20036;-71
2021/09/24 07:40:24;;;;;;;21.48;8.25;;;;;;;17.62;86.45;101760.81;5083889;28;20556;-72
2021/09/24 07:42:50;;;;;;;20.42;8.02;;;;;;;17.68;85.14;101762.03;5084406;28;20024;-71
2021/09/24 07:45:15;;;;;;;21.75;7.30;;;;;;;17.80;84.79;101762.56;5074695;28;20036;-71
2021/09/24 07:47:41;;;;;;;18.23;7.10;;;;;;;17.96;84.55;101768.03;5091798;28;20054;-73
2021/09/24 07:50:07;;;;;;;19.65;6.85;;;;;;;18.10;83.07;101765.69;5092725;28;20452;-71
2021/09/24 07:52:32;;;;;;;14.57;6.20;;;;;;;18.13;82.11;101768.88;5093019;28;20040;-71
2021/09/24 07:54:58;;;;;;;11.43;6.10;;;;;;;18.36;80.71;101767.38;5092184;28;20036;-73
2021/09/24 07:57:24;;;;;;;11.75;5.03;;;;;;;18.63;80.34;101767.06;5092807;28;20085;-76
2021/09/24 07:59:49;;;;;;;11.85;5.18;;;;;;;18.84;78.03;101757.59;5091998;28;20115;-72
2021/09/24 08:02:15;;;;;;;15.27;5.47;;;;;;;19.04;75.29;101760.78;5092739;28;20032;-71
2021/09/24 08:04:41;;;;;;;16.10;4.90;;;;;;;19.11;74.31;101758.22;5092179;28;20527;-72
2021/09/24 08:07:08;;;;;;;20.60;4.60;;;;;;;19.18;73.42;101754.66;5092731;28;20148;-73
2021/09/24 08:09:33;;;;;;;13.70;4.50;;;;;;;19.22;72.70;101755.16;5092698;28;20036;-76
2021/09/24 08:11:59;;;;;;;8.63;3.80;;;;;;;19.22;71.54;101755.16;5091638;28;20181;-70
2021/09/24 08:14:25;;;;;;;9.52;4.32;;;;;;;19.33;71.03;101751.22;5092201;28;20039;-72
2021/09/24 08:16:50;;;;;;;12.25;4.05;;;;;;;19.39;70.98;101758.63;5073620;28;20028;-69
2021/09/24 08:19:15;;;;;;;12.70;4.32;;;;;;;19.71;68.15;101757.63;5092088;28;20461;-73
2021/09/24 08:21:41;;;;;;;15.00;3.83;;;;;;;19.98;68.83;101760.88;5092380;28;20111;-70
2021/09/24 08:24:06;;;;;;;13.13;4.10;;;;;;;20.06;69.22;101759.97;5091933;28;20081;-67
2021/09/24 08:26:32;;;;;;;12.27;4.00;;;;;;;20.04;67.58;101756.63;5092365;28;20103;-71
2021/09/24 08:28:57;;;;;;;12.55;3.97;;;;;;;19.68;68.61;101751.75;5091732;28;20162;-69
2021/09/24 08:31:22;;;;;;;11.95;3.95;;;;;;;19.28;69.91;101757.16;5092179;28;20036;-69
2021/09/24 08:33:48;;;;;;;11.63;4.40;;;;;;;19.08;70.06;101761.25;5091476;28;20035;-70
2021/09/24 08:36:14;;;;;;;11.90;4.22;;;;;;;18.92;71.26;101754.06;5092126;28;20062;-68
2021/09/24 08:38:40;;;;;;;13.07;4.10;;;;;;;19.10;70.54;101760.06;5074206;28;20115;-70
2021/09/24 08:41:05;;;;;;;11.80;3.80;;;;;;;19.70;68.57;101761.34;5091463;28;20115;-67
2021/09/24 08:43:30;;;;;;;8.45;3.20;;;;;;;20.06;66.44;101758.13;5091700;28;20060;-74
2021/09/24 08:45:56;;;;;;;10.80;3.88;;;;;;;19.89;67.48;101765.47;5090352;28;20468;-75
2021/09/24 08:48:22;;;;;;;12.75;4.10;;;;;;;19.70;68.08;101763.19;5091963;28;20032;-73
2021/09/24 08:50:50;;;;;;;12.13;4.53;;;;;;;19.28;68.90;101761.72;5091294;28;20085;-70
2021/09/24 08:53:19;;;;;;;15.27;4.57;;;;;;;18.92;70.74;101776.47;5091730;28;20131;-71
2021/09/24 08:55:45;;;;;;;12.38;4.68;;;;;;;18.79;71.31;101765.34;5092105;28;20032;-72
2021/09/24 08:58:12;;;;;;;15.07;5.13;;;;;;;18.89;72.17;101771.41;5092505;28;20055;-72
2021/09/24 09:00:42;;;;;;;20.23;5.20;;;;;;;20.19;68.62;101765.63;5092110;28;20032;-72
2021/09/24 09:03:10;;;;;;;17.85;4.40;;;;;;;22.66;60.09;101765.31;5091334;28;20130;-72
2021/09/24 09:05:45;;;;;;;13.77;4.78;;;;;;;24.31;54.37;101764.59;5094114;28;20032;-71
2021/09/24 09:08:19;;;;;;;14.35;4.60;;;;;;;23.93;53.86;101760.56;5094517;28;20053;-72
2021/09/24 09:10:55;;;;;;;14.25;4.50;;;;;;;23.03;56.67;101768.69;5093249;28;20063;-73
2021/09/24 09:13:21;;;;;;;11.43;4.63;;;;;;;21.96;59.85;101758.78;5092096;28;20020;-73
2021/09/24 09:16:03;;;;;;;8.75;4.32;;;;;;;21.20;62.71;101764.50;5091615;28;20039;-71
2021/09/24 09:18:31;;;;;;;13.20;4.55;;;;;;;20.95;63.84;101762.09;5091522;28;20040;-71
2021/09/24 09:20:57;;;;;;;10.63;4.55;;;;;;;20.50;64.31;101758.47;5090684;28;20472;-71
2021/09/24 09:23:25;;;;;;;10.23;4.57;;;;;;;20.02;66.23;101753.25;5091697;28;20032;-71
2021/09/24 09:25:52;;;;;;;13.50;4.60;;;;;;;19.95;66.45;101757.69;5091382;28;20039;-71
2021/09/24 09:28:41;;;;;;;10.75;4.03;;;;;;;19.53;65.64;101752.50;5091580;28;20040;-71
2021/09/24 09:31:29;;;;;;;12.05;3.85;;;;;;;19.20;65.44;101746.41;5090744;28;20380;-70
2021/09/24 09:33:58;;;;;;;6.78;3.28;;;;;;;18.98;66.20;101746.13;5091248;28;20032;-69
2021/09/24 09:36:28;;;;;;;6.65;3.47;;;;;;;19.17;65.33;101734.09;5091454;28;20020;-71
2021/09/24 09:38:54;;;;;;;7.60;3.65;;;;;;;19.69;64.56;101737.22;5090831;28;20028;-72
2021/09/24 09:41:21;;;;;;;8.13;3.40;;;;;;;20.25;62.24;101745.97;5091143;28;20047;-74
2021/09/24 09:44:04;;;;;;;9.07;3.70;;;;;;;20.10;63.50;101749.66;5091592;28;20028;-81
2021/09/24 09:46:34;;;;;;;7.78;3.55;;;;;;;20.23;64.00;101739.09;5091639;28;20024;-74
2021/09/24 09:49:11;;;;;;;14.95;4.70;;;;;;;20.68;62.55;101734.66;5090812;28;20035;-75
2021/09/24 09:51:39;;;;;;;8.15;3.95;;;;;;;21.58;60.04;101729.22;5091013;28;20028;-73
2021/09/24 09:54:07;;;;;;;9.48;4.07;;;;;;;23.27;54.67;101722.28;5090872;28;20036;-74
2021/09/24 09:56:49;;;;;;;10.30;4.35;;;;;;;23.37;55.39;101723.56;5091294;28;20058;-73
2021/09/24 09:59:30;;;;;;;10.50;3.70;;;;;;;23.82;52.97;101724.97;5095355;28;20031;-73
2021/09/24 10:02:09;;;;;;;10.90;3.87;;;;;;;23.34;54.61;101732.13;5094645;28;20024;-74
2021/09/24 10:04:36;;;;;;;7.72;3.33;;;;;;;24.54;51.29;101726.09;5094935;28;20324;-74
2021/09/24 10:07:14;;;;;;;9.75;3.38;;;;;;;25.96;48.10;101719.94;5094536;28;20054;-74
2021/09/24 10:09:40;;;;;;;9.57;4.03;;;;;;;27.13;45.12;101712.16;5095089;28;20084;-74
2021/09/24 10:12:21;;;;;;;12.45;3.90;;;;;;;27.39;42.31;101713.72;5075641;28;20044;-74
2021/09/24 10:14:49;;;;;;;9.18;3.38;;;;;;;26.44;44.14;101718.53;5095239;28;20107;-73
2021/09/24 10:17:15;;;;;;;10.82;3.60;;;;;;;25.62;46.55;101713.84;5094223;28;20032;-74
2021/09/24 10:19:43;;;;;;;9.43;3.78;;;;;;;25.96;45.21;101713.63;5094727;28;20038;-74
2021/09/24 10:22:09;;;;;;;9.85;4.30;;;;;;;25.93;44.92;101712.19;5093995;28;20032;-74
2021/09/24 10:24:34;;;;;;;12.02;3.90;;;;;;;25.48;46.69;101715.81;5076697;28;20425;-74
2021/09/24 10:27:05;;;;;;;15.13;3.75;;;;;;;24.45;49.17;101713.75;5094194;28;20498;-74
2021/09/24 10:29:35;;;;;;;7.57;3.97;;;;;;;23.92;51.96;101711.84;5095022;28;20066;-74
2021/09/24 10:32:12;;;;;;;14.55;4.90;;;;;;;23.09;54.09;101718.19;5094144;28;20035;-74
2021/09/24 10:35:01;;;;;;;11.85;4.88;;;;;;;22.77;54.86;101712.38;5094744;28;20032;-73
2021/09/24 10:37:29;;;;;;;9.40;4.28;;;;;;;22.58;54.96;101715.81;5094657;28;20028;-72
2021/09/24 10:40:00;;;;;;;6.80;3.95;;;;;;;21.98;56.10;101716.13;5093429;28;20057;-72
2021/09/24 10:42:27;;;;;;;7.25;3.60;;;;;;;22.49;56.07;101713.22;5094334;28;20032;-71
2021/09/24 10:45:02;;;;;;;10.13;3.50;;;;;;;23.59;53.55;101710.69;5094586;28;20039;-71
2021/09/24 10:47:49;;;;;;;8.55;3.40;;;;;;;24.16;50.48;101726.72;5094231;28;20063;-71
2021/09/24 10:50:33;;;;;;;6.00;3.20;;;;;;;24.04;49.77;101722.94;5075314;28;20024;-71
2021/09/24 10:53:07;;;;;;;7.22;2.97;;;;;;;23.55;50.53;101719.47;5093784;28;20107;-71
2021/09/24 10:55:33;;;;;;;6.55;2.80;;;;;;;22.61;52.55;101721.66;5094051;28;20028;-71
2021/09/24 10:58:00;;;;;;;7.25;2.75;;;;;;;22.14;54.81;101729.41;5093730;28;20479;-73
2021/09/24 11:00:30;;;;;;;7.93;3.00;;;;;;;22.25;53.99;101717.19;5076158;28;20400;-72
2021/09/24 11:03:12;;;;;;;5.25;2.58;;;;;;;22.25;54.85;101716.34;5094368;28;20143;-70
2021/09/24 11:06:10;;;;;;;10.07;2.88;;;;;;;23.22;53.52;101721.00;5093973;28;20035;-73
2021/09/24 11:08:36;;;;;;;7.20;2.45;;;;;;;23.85;51.64;101719.13;5093633;28;20068;-71
2021/09/24 11:11:16;;;;;;;7.50;2.40;;;;;;;24.13;49.87;101718.97;5092918;28;20051;-73
2021/09/24 11:13:48;;;;;;;5.63;2.25;;;;;;;23.62;50.97;101708.59;5093377;28;20392;-72
2021/09/24 11:16:21;;;;;;;8.60;2.53;;;;;;;23.01;52.10;101707.53;5092903;28;20028;-72